Flag for Italy

Past Weather in 38°48'18.5"N, 15°14'41.0"E, Italy — Yesterday and Last 2 Weeks

Currently: 61 °F. Refreshingly cool. (Weather station: Reggio Calabria, Italy). See more current weather

Past Weather in 38°48'18.5"N, 15°14'41.0"E — Graph

°F

38°48'18.5"N, 15°14'41.0"E Temperature Yesterday

Maximum temperature yesterday: 75 °F (at 10:20 am)
Minimum temperature yesterday: 63 °F (at 12:20 am)
Average temperature yesterday: 69 °F

High & Low Weather Summary for the Past Weeks

 TemperatureHumidityPressure
High84 °F (Sep 30, 12:50 pm)94% (Sep 26, 12:50 pm)30.33 "Hg (Sep 26, 12:50 pm)
Low57 °F (Sep 24, 3:50 am)31% (Sep 23, 11:50 am)29.74 "Hg (Sep 27, 3:20 am)
Average73 °F63%30.02 "Hg
* Reported Sep 22 4:20 am — Oct 7 4:20 am, 38°48'18.5"N, 15°14'41.0"E. Weather by CustomWeather, © 2022

Note: Actual official high and low records may vary slightly from our data, if they occured in-between our weather recording intervals... More about our weather records

38°48'18.5"N, 15°14'41.0"E Weather History for the Previous 24 Hours

Scroll right to see more
 ConditionsComfort  
Time TempWeatherWind HumidityBarometerVisibility
4:20 am
Fri, Oct 7
63 °FMild.7 mph56%30.24 "HgN/A
3:20 am63 °FMild.7 mph52%30.27 "HgN/A
1:20 am63 °FMild.7 mph56%30.27 "HgN/A
12:20 am63 °FMild.8 mph56%30.30 "HgN/A
11:20 pm
Thu, Oct 6
64 °FMild.6 mph56%30.30 "HgN/A
10:50 pm64 °FMild.7 mph56%30.30 "HgN/A
9:20 pm64 °FMild.3 mph78%30.30 "HgN/A
8:50 pm64 °FMild.3 mph78%30.30 "HgN/A
8:20 pm66 °FMild.6 mph73%30.30 "HgN/A
7:50 pm68 °FMild.6 mph73%30.27 "HgN/A
7:20 pm68 °FMild.6 mph73%30.27 "HgN/A
6:20 pm72 °FMild.6 mph65%30.27 "HgN/A
5:50 pm72 °FMild.6 mph65%30.27 "HgN/A
5:20 pm73 °FMild.6 mph61%30.27 "HgN/A
4:20 pm73 °FMild.7 mph61%30.27 "HgN/A
3:20 pm75 °FMild.8 mph61%30.27 "HgN/A
2:50 pm75 °FMild.8 mph57%30.30 "HgN/A
2:20 pm75 °FMild.9 mph57%30.30 "HgN/A
1:50 pm75 °FMild.9 mph57%30.30 "HgN/A
1:20 pm75 °FMild.9 mph57%30.30 "HgN/A
12:50 pm75 °FMild.9 mph57%30.30 "HgN/A
12:20 pm75 °FMild.8 mph57%30.30 "HgN/A
10:50 am73 °FMild.7 mph61%30.33 "HgN/A
10:20 am75 °FMild.7 mph57%30.33 "HgN/A
9:20 am73 °FPassing clouds.3 mph57%30.30 "HgN/A
8:50 am72 °FMild.5 mph57%30.30 "HgN/A
8:20 am68 °FMild.7 mph60%30.30 "HgN/A
7:50 am64 °FMild.7 mph64%30.30 "HgN/A
7:20 am63 °FMild.7 mph68%30.30 "HgN/A
6:50 am63 °FMild.7 mph64%30.30 "HgN/A
6:20 am63 °FMild.7 mph68%30.30 "HgN/A
5:50 am63 °FMild.7 mph68%30.30 "HgN/A
5:20 am63 °FMild.7 mph68%30.30 "HgN/A
Weather by CustomWeather, © 2022

See weather overview